AirNav   ProFlight Series 2 Aviation Headset
 
 1543 users online  

FD88 Aero Acres Airport
Fort Pierce, Florida, USA

GOING TO FORT PIERCE?


FAA INFORMATION EFFECTIVE 13 AUGUST 2020

Location

FAA Identifier: FD88
Lat/Long: 27-20-31.1530N 080-31-19.1960W
27-20.519217N 080-31.319933W
27.3419869,-80.5219989
(estimated)
Elevation: 25 ft. / 8 m (estimated)
Variation: 03W (1985)
From city: 11 miles SW of FORT PIERCE, FL
Time zone: UTC -4 (UTC -5 during Standard Time)
Zip code: 34987

Airport Operations

Airport use: Private use. Permission required prior to landing
Activation date: 02/1990
Control tower: no
ARTCC: MIAMI CENTER
FSS: MIAMI FLIGHT SERVICE STATION
Attendance: UNATNDD
Wind indicator: lighted
Segmented circle: no
Lights: FOR MIRL RY 09/27 5 CLICKS ON 122.9.
Beacon: white-white-green (lighted military airport)

Airport Communications

WX ASOS at FPR (12 nm NE): PHONE 772-489-4281
WX AWOS-3 at OBE (18 nm W): 118.675 (863-467-1148)
WX AWOS-3 at SUA (19 nm SE): PHONE 772-692-7399
WX ASOS at VRB (20 nm N): 120.575 (772-978-9535)

Nearby radio navigation aids

VOR radial/distance  VOR name  Freq  Var
TRVr192/20.3TREASURE VORTAC117.3007W
PHKr015/34.8PAHOKEE VOR/DME115.4000E

 
NDB name  Hdg/Dist  Freq  Var  ID
FORT PIERCE229/11.827507WFPR ..-. .--. .-.
UNITED344/27.840505WUTX ..- - -..-

Airport Services

Runway Information

Runway 9/27

Dimensions: 3150 x 50 ft. / 960 x 15 m
Surface: concrete
Runway edge lights: medium intensity
RUNWAY 9  RUNWAY 27
Traffic pattern: leftleft
Displaced threshold: 300 ft.300 ft.
Obstructions: 50 ft. trees, 450 ft. from runwaynone

Airport Ownership and Management from official FAA records

Ownership: Privately-owned
Owner: AERO ACRES PROPERTY OWNERS
18506 MACH ONE DRIVE
PORT ST LUCIE, FL 34987
Phone 772-595-9562
Manager: BEBE OWEN
18506 MACH ONE DRIVE
PORT ST LUCIE, FL 34988
Phone 772-595-9562

Airport Operational Statistics

Aircraft based on the field: 31
Single engine airplanes: 24
Multi engine airplanes: 4
Jet airplanes: 1
Helicopters: 1
Ultralights: 1
    

Additional Remarks

BIRDS ON RUNWAY.
FOR CD CTC PALM BEACH APCH AT 561-275-1430

Instrument Procedures

There are no published instrument procedures at FD88.

Some nearby airports with instrument procedures:

KFPR - Treasure Coast International Airport (12 nm NE)
KOBE - Okeechobee County Airport (18 nm W)
KSUA - Witham Field Airport (19 nm SE)
KVRB - Vero Beach Regional Airport (20 nm N)
06FA - William P Gwinn Airport (28 nm S)
 
Loc | Ops | Rwys | IFR | FBO | Links
Com | Nav | Svcs | Stats | Notes


 
Area around FD88 (Aero Acres Airport)
 
Road maps at: MapQuest Bing Google
 
Aerial photo
WARNING: Photo may not be current or correct
Aerial photo of FD88 (Aero Acres Airport)
Do you have a better or more recent aerial photo of Aero Acres Airport that you would like to share? If so, please send us your photo.

 
Sectional chart

 
Airport distance calculator
Flying to Aero Acres Airport? Find the distance to fly.

From to FD88

Sunrise and sunset
Times for 13-Aug-2020
 Local
(UTC-4)
 Zulu
(UTC)
Morning civil twilight06:2910:29
Sunrise06:5310:53
Sunset20:0024:00
Evening civil twilight20:2400:24

Current date and time
Zulu (UTC)  13-Aug-2020 17:31:09
Local (UTC-4)  13-Aug-2020 13:31:09
 
METAR
KFPR 
12nm NE 
131653Z 03003KT 10SM FEW070 SCT110 28/24 A3005 RMK AO2 LTG DSNT SW RAE00B15E38 TSB1555E38 SLP175 P0047 T02830239
KOBE 
18nm W 
131715Z AUTO 14009KT 10SM CLR 32/23 A3004 RMK AO2 LTG DSNT E
KSUA 
19nm SE 
131656Z VRB06KT 5SM -RA SCT010 BKN020 28/24 A3007 RMK TSE56
KVRB 
19nm N 
131653Z 15011KT 10SM CLR 32/24 A3005 RMK AO2 LTG DSNT S RAB1558E09 SLP176 P0000 T03220239
TAF
KFPR 
12nm NE 
131531Z 1316/1412 16010KT P6SM VCTS SCT030CB SCT250 TEMPO 1316/1318 16012G18KT 4SM TSRA BKN030CB FM131800 13010KT P6SM VCTS SCT035CB SCT080 BKN200 FM132000 16006KT P6SM VCSH SCT040 BKN150 FM140000 16006KT P6SM FEW040 SCT100 BKN250
KSUA 
19nm SE 
131428Z 1314/1412 12008KT P6SM VCTS FEW020 SCT035CB FM131530 11096KT P6SM VCSH FEW020 SCT035 FM131800 13010KT P6SM VCTS SCT035CB SCT080 BKN200 FM132100 16006KT P6SM VCSH SCT040 BKN150 FM140000 16006KT P6SM FEW040 SCT100 BKN250
KVRB 
19nm N 
131120Z 1312/1412 VRB03KT P6SM FEW025 SCT250 FM131400 17006KT P6SM SCT035 SCT250 FM131800 14010KT P6SM VCTS SCT035CB SCT080 BKN200 FM132230 16006KT P6SM VCSH SCT040 BKN150 FM140000 16006KT P6SM FEW040 SCT100 BKN250
NOTAMs
Click for the latest NOTAMs
NOTAMs are issued by the DoD/FAA and will open in a separate window not controlled by AirNav.

 

 
 

Would you like to see your business listed on this page?

 If your business provides an interesting product or service to pilots, flight crews, aircraft, or users of the Aero Acres Airport, you should consider listing it here.  To start the listing process, click on the button below
 
Add a business
 

Other Pages about Aero Acres Airport

www.aero-acres.com
 
Update a link
 
Copyright © AirNav, LLC. All rights reserved. Privacy Policy  Contact